Terminal Aerodrome Forecast
Issued by NWS St Louis, MO

Home | Current Version | Previous Version | Text Only | Print | Product List | Glossary On
Versions: 1 2 3 4 5 6 7 8 9 10 11 12 13 14 15 16 17 18 19 20 21 22 23 24 25 26 27 28
257
FTUS43 KLSX 230139 AAA
TAFCOU
TAF AMD
KCOU 230139Z 2302/2324 10007KT 1SM -RA BR OVC003
      TEMPO 2302/2305 1/2SM FG OVC002
     FM230500 14007KT 3SM -RA BR OVC003
     FM230900 21006KT 4SM BR OVC003
     FM231600 29006KT P6SM BKN008
     FM232000 30004KT P6SM BKN020=

USA.gov is the U.S. government's official web portal to all federal, state and local government web resources and services.